sensor_id;sensor_type;location;lat;lon;timestamp;P1;durP1;ratioP1;P2;durP2;ratioP2
24799;SDS011;12897;50.812;4.430;2022-09-01T00:01:48;10.78;;;4.00;;
24799;SDS011;12897;50.812;4.430;2022-09-01T00:04:18;11.95;;;4.15;;
24799;SDS011;12897;50.812;4.430;2022-09-01T00:06:49;9.45;;;4.08;;
24799;SDS011;12897;50.812;4.430;2022-09-01T00:09:19;12.58;;;3.98;;
24799;SDS011;12897;50.812;4.430;2022-09-01T00:11:50;10.38;;;4.33;;
24799;SDS011;12897;50.812;4.430;2022-09-01T00:14:20;9.65;;;4.12;;
24799;SDS011;12897;50.812;4.430;2022-09-01T00:16:49;12.25;;;3.92;;
24799;SDS011;12897;50.812;4.430;2022-09-01T00:19:16;9.50;;;3.85;;
24799;SDS011;12897;50.812;4.430;2022-09-01T00:21:44;11.55;;;4.17;;
24799;SDS011;12897;50.812;4.430;2022-09-01T00:24:12;13.30;;;4.28;;
24799;SDS011;12897;50.812;4.430;2022-09-01T00:26:42;10.55;;;3.98;;
24799;SDS011;12897;50.812;4.430;2022-09-01T00:29:11;11.38;;;4.42;;
24799;SDS011;12897;50.812;4.430;2022-09-01T00:31:39;12.63;;;4.08;;
24799;SDS011;12897;50.812;4.430;2022-09-01T00:34:07;11.60;;;4.28;;
24799;SDS011;12897;50.812;4.430;2022-09-01T00:36:35;9.03;;;4.28;;
24799;SDS011;12897;50.812;4.430;2022-09-01T00:39:03;7.60;;;3.90;;
24799;SDS011;12897;50.812;4.430;2022-09-01T00:41:32;13.85;;;4.12;;
24799;SDS011;12897;50.812;4.430;2022-09-01T00:44:04;7.65;;;4.03;;
24799;SDS011;12897;50.812;4.430;2022-09-01T00:46:36;9.55;;;3.95;;
24799;SDS011;12897;50.812;4.430;2022-09-01T00:51:40;13.15;;;4.53;;
24799;SDS011;12897;50.812;4.430;2022-09-01T00:54:11;8.28;;;4.37;;
24799;SDS011;12897;50.812;4.430;2022-09-01T00:59:29;12.45;;;4.20;;
24799;SDS011;12897;50.812;4.430;2022-09-01T01:01:58;10.60;;;4.53;;
24799;SDS011;12897;50.812;4.430;2022-09-01T01:04:26;10.50;;;4.50;;
24799;SDS011;12897;50.812;4.430;2022-09-01T01:06:55;8.83;;;4.40;;
24799;SDS011;12897;50.812;4.430;2022-09-01T01:09:26;13.45;;;4.67;;
24799;SDS011;12897;50.812;4.430;2022-09-01T01:11:56;11.48;;;4.17;;
24799;SDS011;12897;50.812;4.430;2022-09-01T01:14:26;11.15;;;4.15;;
24799;SDS011;12897;50.812;4.430;2022-09-01T01:16:57;10.23;;;4.25;;
24799;SDS011;12897;50.812;4.430;2022-09-01T01:19:30;11.18;;;4.28;;
24799;SDS011;12897;50.812;4.430;2022-09-01T01:25:05;14.38;;;4.17;;
24799;SDS011;12897;50.812;4.430;2022-09-01T01:27:34;9.03;;;4.00;;
24799;SDS011;12897;50.812;4.430;2022-09-01T01:30:03;11.33;;;4.67;;
24799;SDS011;12897;50.812;4.430;2022-09-01T01:32:34;7.83;;;4.30;;
24799;SDS011;12897;50.812;4.430;2022-09-01T01:35:05;10.90;;;4.80;;
24799;SDS011;12897;50.812;4.430;2022-09-01T01:37:34;7.60;;;3.90;;
24799;SDS011;12897;50.812;4.430;2022-09-01T01:40:03;12.53;;;4.17;;
24799;SDS011;12897;50.812;4.430;2022-09-01T01:42:32;6.73;;;4.30;;
24799;SDS011;12897;50.812;4.430;2022-09-01T01:45:00;10.25;;;4.33;;
24799;SDS011;12897;50.812;4.430;2022-09-01T01:47:29;13.15;;;4.92;;
24799;SDS011;12897;50.812;4.430;2022-09-01T01:49:58;9.08;;;4.62;;
24799;SDS011;12897;50.812;4.430;2022-09-01T01:52:34;9.80;;;4.55;;
24799;SDS011;12897;50.812;4.430;2022-09-01T01:55:02;12.15;;;4.53;;
24799;SDS011;12897;50.812;4.430;2022-09-01T01:57:31;13.45;;;5.00;;
24799;SDS011;12897;50.812;4.430;2022-09-01T02:00:00;9.48;;;4.72;;
24799;SDS011;12897;50.812;4.430;2022-09-01T02:02:28;7.78;;;4.55;;
24799;SDS011;12897;50.812;4.430;2022-09-01T02:04:56;13.00;;;5.25;;
24799;SDS011;12897;50.812;4.430;2022-09-01T02:07:24;13.43;;;5.05;;
24799;SDS011;12897;50.812;4.430;2022-09-01T02:09:52;13.08;;;5.45;;
24799;SDS011;12897;50.812;4.430;2022-09-01T02:12:30;11.80;;;5.12;;
24799;SDS011;12897;50.812;4.430;2022-09-01T02:14:57;14.38;;;4.95;;
24799;SDS011;12897;50.812;4.430;2022-09-01T02:17:26;13.05;;;5.35;;
24799;SDS011;12897;50.812;4.430;2022-09-01T02:19:54;13.32;;;5.35;;
24799;SDS011;12897;50.812;4.430;2022-09-01T02:22:22;17.23;;;6.22;;
24799;SDS011;12897;50.812;4.430;2022-09-01T02:24:49;12.90;;;5.87;;
24799;SDS011;12897;50.812;4.430;2022-09-01T02:27:18;18.62;;;5.95;;
24799;SDS011;12897;50.812;4.430;2022-09-01T02:29:47;11.57;;;5.78;;
24799;SDS011;12897;50.812;4.430;2022-09-01T02:32:16;16.93;;;6.62;;
24799;SDS011;12897;50.812;4.430;2022-09-01T02:34:47;16.50;;;6.53;;
24799;SDS011;12897;50.812;4.430;2022-09-01T02:37:17;11.63;;;6.25;;
24799;SDS011;12897;50.812;4.430;2022-09-01T02:39:53;14.03;;;6.53;;
24799;SDS011;12897;50.812;4.430;2022-09-01T02:42:24;16.90;;;7.28;;
24799;SDS011;12897;50.812;4.430;2022-09-01T02:44:55;21.48;;;7.08;;
24799;SDS011;12897;50.812;4.430;2022-09-01T02:47:23;18.02;;;7.12;;
24799;SDS011;12897;50.812;4.430;2022-09-01T02:49:55;13.80;;;6.25;;
24799;SDS011;12897;50.812;4.430;2022-09-01T02:52:29;13.98;;;6.67;;
24799;SDS011;12897;50.812;4.430;2022-09-01T02:54:59;14.58;;;7.08;;
24799;SDS011;12897;50.812;4.430;2022-09-01T02:57:27;18.35;;;7.42;;
24799;SDS011;12897;50.812;4.430;2022-09-01T02:59:58;17.85;;;7.70;;
24799;SDS011;12897;50.812;4.430;2022-09-01T03:02:27;16.37;;;7.33;;
24799;SDS011;12897;50.812;4.430;2022-09-01T03:04:57;19.85;;;7.95;;
24799;SDS011;12897;50.812;4.430;2022-09-01T03:07:24;20.32;;;7.72;;
24799;SDS011;12897;50.812;4.430;2022-09-01T03:09:52;18.62;;;8.03;;
24799;SDS011;12897;50.812;4.430;2022-09-01T03:12:20;23.27;;;8.18;;
24799;SDS011;12897;50.812;4.430;2022-09-01T03:14:50;21.85;;;8.20;;
24799;SDS011;12897;50.812;4.430;2022-09-01T03:17:18;14.47;;;6.95;;
24799;SDS011;12897;50.812;4.430;2022-09-01T03:19:46;18.60;;;7.97;;
24799;SDS011;12897;50.812;4.430;2022-09-01T03:22:15;18.82;;;8.25;;
24799;SDS011;12897;50.812;4.430;2022-09-01T03:24:43;17.98;;;7.33;;
24799;SDS011;12897;50.812;4.430;2022-09-01T03:27:10;15.83;;;7.15;;
24799;SDS011;12897;50.812;4.430;2022-09-01T03:29:39;16.87;;;7.08;;
24799;SDS011;12897;50.812;4.430;2022-09-01T03:32:06;16.05;;;7.25;;
24799;SDS011;12897;50.812;4.430;2022-09-01T03:34:34;16.40;;;7.80;;
24799;SDS011;12897;50.812;4.430;2022-09-01T03:37:01;20.52;;;9.15;;
24799;SDS011;12897;50.812;4.430;2022-09-01T03:39:31;23.52;;;8.00;;
24799;SDS011;12897;50.812;4.430;2022-09-01T03:41:59;18.98;;;7.55;;
24799;SDS011;12897;50.812;4.430;2022-09-01T03:44:27;19.17;;;7.78;;
24799;SDS011;12897;50.812;4.430;2022-09-01T03:46:54;14.87;;;7.50;;
24799;SDS011;12897;50.812;4.430;2022-09-01T03:49:23;14.45;;;7.60;;
24799;SDS011;12897;50.812;4.430;2022-09-01T03:51:52;19.82;;;7.25;;
24799;SDS011;12897;50.812;4.430;2022-09-01T03:54:23;17.27;;;6.85;;
24799;SDS011;12897;50.812;4.430;2022-09-01T03:56:52;16.95;;;7.45;;
24799;SDS011;12897;50.812;4.430;2022-09-01T03:59:19;17.42;;;7.40;;
24799;SDS011;12897;50.812;4.430;2022-09-01T04:01:47;20.68;;;6.92;;
24799;SDS011;12897;50.812;4.430;2022-09-01T04:04:15;15.72;;;7.35;;
24799;SDS011;12897;50.812;4.430;2022-09-01T04:06:43;14.73;;;7.40;;
24799;SDS011;12897;50.812;4.430;2022-09-01T04:09:12;17.02;;;7.00;;
24799;SDS011;12897;50.812;4.430;2022-09-01T04:11:39;16.37;;;7.33;;
24799;SDS011;12897;50.812;4.430;2022-09-01T04:17:01;17.57;;;6.87;;
24799;SDS011;12897;50.812;4.430;2022-09-01T04:19:47;20.70;;;7.40;;
24799;SDS011;12897;50.812;4.430;2022-09-01T04:22:18;20.65;;;7.08;;
24799;SDS011;12897;50.812;4.430;2022-09-01T04:24:45;17.48;;;6.53;;
24799;SDS011;12897;50.812;4.430;2022-09-01T04:27:13;13.03;;;6.78;;
24799;SDS011;12897;50.812;4.430;2022-09-01T04:29:42;21.23;;;6.80;;
24799;SDS011;12897;50.812;4.430;2022-09-01T04:32:11;16.23;;;7.67;;
24799;SDS011;12897;50.812;4.430;2022-09-01T04:34:40;13.65;;;5.87;;
24799;SDS011;12897;50.812;4.430;2022-09-01T04:37:12;14.23;;;7.22;;
24799;SDS011;12897;50.812;4.430;2022-09-01T04:39:53;17.42;;;7.12;;
24799;SDS011;12897;50.812;4.430;2022-09-01T04:42:17;14.47;;;6.62;;
24799;SDS011;12897;50.812;4.430;2022-09-01T04:44:47;15.68;;;6.65;;
24799;SDS011;12897;50.812;4.430;2022-09-01T04:47:15;13.25;;;7.22;;
24799;SDS011;12897;50.812;4.430;2022-09-01T04:49:45;15.50;;;7.00;;
24799;SDS011;12897;50.812;4.430;2022-09-01T04:52:16;15.75;;;6.78;;
24799;SDS011;12897;50.812;4.430;2022-09-01T04:54:50;19.27;;;7.37;;
24799;SDS011;12897;50.812;4.430;2022-09-01T04:57:19;15.83;;;6.62;;
24799;SDS011;12897;50.812;4.430;2022-09-01T04:59:47;24.50;;;6.92;;
24799;SDS011;12897;50.812;4.430;2022-09-01T05:02:15;14.58;;;6.83;;
24799;SDS011;12897;50.812;4.430;2022-09-01T05:04:43;13.88;;;6.53;;
24799;SDS011;12897;50.812;4.430;2022-09-01T05:07:11;19.73;;;7.25;;
24799;SDS011;12897;50.812;4.430;2022-09-01T05:09:40;19.82;;;7.35;;
24799;SDS011;12897;50.812;4.430;2022-09-01T05:12:08;15.35;;;7.35;;
24799;SDS011;12897;50.812;4.430;2022-09-01T05:14:41;15.85;;;7.42;;
24799;SDS011;12897;50.812;4.430;2022-09-01T05:17:11;14.53;;;7.35;;
24799;SDS011;12897;50.812;4.430;2022-09-01T05:19:42;14.87;;;7.03;;
24799;SDS011;12897;50.812;4.430;2022-09-01T05:22:12;19.35;;;7.45;;
24799;SDS011;12897;50.812;4.430;2022-09-01T05:24:42;18.50;;;8.03;;
24799;SDS011;12897;50.812;4.430;2022-09-01T05:27:11;15.93;;;7.40;;
24799;SDS011;12897;50.812;4.430;2022-09-01T05:29:39;15.68;;;7.45;;
24799;SDS011;12897;50.812;4.430;2022-09-01T05:32:07;15.90;;;7.58;;
24799;SDS011;12897;50.812;4.430;2022-09-01T05:37:06;18.77;;;7.60;;
24799;SDS011;12897;50.812;4.430;2022-09-01T05:39:36;22.37;;;8.15;;
24799;SDS011;12897;50.812;4.430;2022-09-01T05:42:09;21.33;;;8.15;;
24799;SDS011;12897;50.812;4.430;2022-09-01T05:44:34;17.05;;;7.92;;
24799;SDS011;12897;50.812;4.430;2022-09-01T05:47:05;22.80;;;9.33;;
24799;SDS011;12897;50.812;4.430;2022-09-01T05:49:35;21.68;;;8.35;;
24799;SDS011;12897;50.812;4.430;2022-09-01T05:54:34;19.55;;;8.23;;
24799;SDS011;12897;50.812;4.430;2022-09-01T05:57:08;36.17;;;7.97;;
24799;SDS011;12897;50.812;4.430;2022-09-01T05:59:36;21.10;;;8.28;;
24799;SDS011;12897;50.812;4.430;2022-09-01T06:02:13;15.85;;;7.42;;
24799;SDS011;12897;50.812;4.430;2022-09-01T06:04:40;20.00;;;7.50;;
24799;SDS011;12897;50.812;4.430;2022-09-01T06:07:15;20.40;;;8.18;;
24799;SDS011;12897;50.812;4.430;2022-09-01T06:09:47;20.00;;;7.42;;
24799;SDS011;12897;50.812;4.430;2022-09-01T06:12:13;16.10;;;7.92;;
24799;SDS011;12897;50.812;4.430;2022-09-01T06:14:46;24.82;;;8.28;;
24799;SDS011;12897;50.812;4.430;2022-09-01T06:17:16;16.10;;;7.28;;
24799;SDS011;12897;50.812;4.430;2022-09-01T06:19:46;17.45;;;8.28;;
24799;SDS011;12897;50.812;4.430;2022-09-01T06:22:14;21.55;;;6.53;;
24799;SDS011;12897;50.812;4.430;2022-09-01T06:24:49;14.63;;;6.12;;
24799;SDS011;12897;50.812;4.430;2022-09-01T06:27:19;14.90;;;6.33;;
24799;SDS011;12897;50.812;4.430;2022-09-01T06:29:47;18.00;;;5.60;;
24799;SDS011;12897;50.812;4.430;2022-09-01T06:32:16;16.20;;;5.83;;
24799;SDS011;12897;50.812;4.430;2022-09-01T06:34:45;17.48;;;6.00;;
24799;SDS011;12897;50.812;4.430;2022-09-01T06:37:14;16.97;;;5.60;;
24799;SDS011;12897;50.812;4.430;2022-09-01T06:42:11;11.33;;;5.45;;
24799;SDS011;12897;50.812;4.430;2022-09-01T06:44:40;18.42;;;5.35;;
24799;SDS011;12897;50.812;4.430;2022-09-01T06:47:08;17.75;;;5.80;;
24799;SDS011;12897;50.812;4.430;2022-09-01T06:49:35;16.80;;;6.25;;
24799;SDS011;12897;50.812;4.430;2022-09-01T06:52:06;13.88;;;6.22;;
24799;SDS011;12897;50.812;4.430;2022-09-01T06:54:36;16.80;;;6.37;;
24799;SDS011;12897;50.812;4.430;2022-09-01T06:57:07;12.78;;;5.92;;
24799;SDS011;12897;50.812;4.430;2022-09-01T06:59:34;16.80;;;5.75;;
24799;SDS011;12897;50.812;4.430;2022-09-01T07:02:02;18.98;;;6.67;;
24799;SDS011;12897;50.812;4.430;2022-09-01T07:04:31;13.72;;;6.20;;
24799;SDS011;12897;50.812;4.430;2022-09-01T07:07:00;11.38;;;5.55;;
24799;SDS011;12897;50.812;4.430;2022-09-01T07:09:29;16.57;;;5.17;;
24799;SDS011;12897;50.812;4.430;2022-09-01T07:11:56;12.65;;;5.62;;
24799;SDS011;12897;50.812;4.430;2022-09-01T07:14:24;13.08;;;5.30;;
24799;SDS011;12897;50.812;4.430;2022-09-01T07:16:52;18.05;;;5.67;;
24799;SDS011;12897;50.812;4.430;2022-09-01T07:19:20;15.65;;;5.00;;
24799;SDS011;12897;50.812;4.430;2022-09-01T07:21:47;10.75;;;4.72;;
24799;SDS011;12897;50.812;4.430;2022-09-01T07:24:15;59.75;;;7.35;;
24799;SDS011;12897;50.812;4.430;2022-09-01T07:26:45;33.20;;;5.85;;
24799;SDS011;12897;50.812;4.430;2022-09-01T07:29:15;21.97;;;6.12;;
24799;SDS011;12897;50.812;4.430;2022-09-01T07:31:45;33.00;;;7.28;;
24799;SDS011;12897;50.812;4.430;2022-09-01T07:34:15;18.62;;;4.97;;
24799;SDS011;12897;50.812;4.430;2022-09-01T07:36:42;13.88;;;4.65;;
24799;SDS011;12897;50.812;4.430;2022-09-01T07:39:11;15.83;;;5.33;;
24799;SDS011;12897;50.812;4.430;2022-09-01T07:41:39;13.80;;;5.60;;
24799;SDS011;12897;50.812;4.430;2022-09-01T07:44:08;18.60;;;5.10;;
24799;SDS011;12897;50.812;4.430;2022-09-01T07:46:38;10.32;;;4.90;;
24799;SDS011;12897;50.812;4.430;2022-09-01T07:49:07;9.60;;;4.50;;
24799;SDS011;12897;50.812;4.430;2022-09-01T07:51:36;10.88;;;4.50;;
24799;SDS011;12897;50.812;4.430;2022-09-01T07:54:04;16.00;;;5.10;;
24799;SDS011;12897;50.812;4.430;2022-09-01T07:56:32;14.07;;;6.15;;
24799;SDS011;12897;50.812;4.430;2022-09-01T08:01:29;12.07;;;4.30;;
24799;SDS011;12897;50.812;4.430;2022-09-01T08:03:59;17.00;;;8.08;;
24799;SDS011;12897;50.812;4.430;2022-09-01T08:06:29;18.10;;;8.38;;
24799;SDS011;12897;50.812;4.430;2022-09-01T08:08:58;8.78;;;4.92;;
24799;SDS011;12897;50.812;4.430;2022-09-01T08:11:27;7.92;;;4.05;;
24799;SDS011;12897;50.812;4.430;2022-09-01T08:13:56;9.10;;;4.35;;
24799;SDS011;12897;50.812;4.430;2022-09-01T08:16:26;8.70;;;3.83;;
24799;SDS011;12897;50.812;4.430;2022-09-01T08:18:55;10.82;;;4.03;;
24799;SDS011;12897;50.812;4.430;2022-09-01T08:21:24;10.93;;;3.87;;
24799;SDS011;12897;50.812;4.430;2022-09-01T08:23:52;10.18;;;4.60;;
24799;SDS011;12897;50.812;4.430;2022-09-01T08:26:23;10.43;;;4.20;;
24799;SDS011;12897;50.812;4.430;2022-09-01T08:28:53;11.95;;;4.67;;
24799;SDS011;12897;50.812;4.430;2022-09-01T08:31:21;10.85;;;4.20;;
24799;SDS011;12897;50.812;4.430;2022-09-01T08:33:52;16.23;;;5.95;;
24799;SDS011;12897;50.812;4.430;2022-09-01T08:36:20;18.45;;;6.55;;
24799;SDS011;12897;50.812;4.430;2022-09-01T08:38:47;24.60;;;5.30;;
24799;SDS011;12897;50.812;4.430;2022-09-01T08:41:25;33.10;;;5.65;;
24799;SDS011;12897;50.812;4.430;2022-09-01T08:46:31;34.43;;;5.00;;
24799;SDS011;12897;50.812;4.430;2022-09-01T08:49:11;25.05;;;4.37;;
24799;SDS011;12897;50.812;4.430;2022-09-01T08:54:25;25.00;;;4.70;;
24799;SDS011;12897;50.812;4.430;2022-09-01T08:56:54;193.90;;;13.70;;
24799;SDS011;12897;50.812;4.430;2022-09-01T08:59:36;20.65;;;5.12;;
24799;SDS011;12897;50.812;4.430;2022-09-01T09:16:22;6.78;;;3.00;;
24799;SDS011;12897;50.812;4.430;2022-09-01T09:21:37;6.87;;;3.37;;
24799;SDS011;12897;50.812;4.430;2022-09-01T09:24:49;6.42;;;3.25;;
24799;SDS011;12897;50.812;4.430;2022-09-01T09:26:51;41.53;;;4.45;;
24799;SDS011;12897;50.812;4.430;2022-09-01T09:29:22;8.45;;;3.67;;
24799;SDS011;12897;50.812;4.430;2022-09-01T09:32:06;7.97;;;3.22;;
24799;SDS011;12897;50.812;4.430;2022-09-01T09:34:36;66.47;;;5.85;;
24799;SDS011;12897;50.812;4.430;2022-09-01T09:37:26;19.50;;;4.12;;
24799;SDS011;12897;50.812;4.430;2022-09-01T09:40:03;18.23;;;3.80;;
24799;SDS011;12897;50.812;4.430;2022-09-01T09:42:58;7.50;;;2.98;;
24799;SDS011;12897;50.812;4.430;2022-09-01T09:45:30;10.20;;;3.03;;
24799;SDS011;12897;50.812;4.430;2022-09-01T09:48:08;7.08;;;3.10;;
24799;SDS011;12897;50.812;4.430;2022-09-01T09:50:41;4.53;;;2.80;;
24799;SDS011;12897;50.812;4.430;2022-09-01T09:53:30;9.08;;;3.00;;
24799;SDS011;12897;50.812;4.430;2022-09-01T09:56:03;14.40;;;3.87;;
24799;SDS011;12897;50.812;4.430;2022-09-01T09:58:36;4.60;;;2.70;;
24799;SDS011;12897;50.812;4.430;2022-09-01T10:03:42;10.00;;;2.50;;
24799;SDS011;12897;50.812;4.430;2022-09-01T10:06:30;6.30;;;2.10;;
24799;SDS011;12897;50.812;4.430;2022-09-01T10:09:07;6.90;;;2.10;;
24799;SDS011;12897;50.812;4.430;2022-09-01T10:11:41;8.75;;;2.10;;
24799;SDS011;12897;50.812;4.430;2022-09-01T10:16:49;5.92;;;2.40;;
24799;SDS011;12897;50.812;4.430;2022-09-01T10:19:20;8.73;;;4.35;;
24799;SDS011;12897;50.812;4.430;2022-09-01T10:21:49;8.73;;;2.37;;
24799;SDS011;12897;50.812;4.430;2022-09-01T10:26:58;6.50;;;2.02;;
24799;SDS011;12897;50.812;4.430;2022-09-01T10:29:36;4.58;;;2.12;;
24799;SDS011;12897;50.812;4.430;2022-09-01T10:32:10;5.83;;;2.12;;
24799;SDS011;12897;50.812;4.430;2022-09-01T10:34:38;3.72;;;2.00;;
24799;SDS011;12897;50.812;4.430;2022-09-01T10:37:10;4.12;;;2.30;;
24799;SDS011;12897;50.812;4.430;2022-09-01T10:42:57;5.03;;;1.98;;
24799;SDS011;12897;50.812;4.430;2022-09-01T10:45:31;6.28;;;2.25;;
24799;SDS011;12897;50.812;4.430;2022-09-01T10:50:52;11.50;;;2.73;;
24799;SDS011;12897;50.812;4.430;2022-09-01T10:58:35;6.70;;;2.40;;
24799;SDS011;12897;50.812;4.430;2022-09-01T11:04:14;4.67;;;2.75;;
24799;SDS011;12897;50.812;4.430;2022-09-01T11:06:48;10.45;;;2.50;;
24799;SDS011;12897;50.812;4.430;2022-09-01T11:12:19;6.17;;;2.35;;
24799;SDS011;12897;50.812;4.430;2022-09-01T11:15:03;7.92;;;2.55;;
24799;SDS011;12897;50.812;4.430;2022-09-01T11:17:38;4.75;;;2.22;;
24799;SDS011;12897;50.812;4.430;2022-09-01T11:25:44;5.72;;;1.77;;
24799;SDS011;12897;50.812;4.430;2022-09-01T11:33:40;17.90;;;2.42;;
24799;SDS011;12897;50.812;4.430;2022-09-01T11:36:14;14.20;;;2.35;;
24799;SDS011;12897;50.812;4.430;2022-09-01T11:38:47;4.05;;;2.20;;
24799;SDS011;12897;50.812;4.430;2022-09-01T11:41:25;6.85;;;2.20;;
24799;SDS011;12897;50.812;4.430;2022-09-01T11:46:33;3.80;;;2.00;;
24799;SDS011;12897;50.812;4.430;2022-09-01T11:49:25;4.42;;;2.33;;
24799;SDS011;12897;50.812;4.430;2022-09-01T11:51:58;5.12;;;2.30;;
24799;SDS011;12897;50.812;4.430;2022-09-01T11:54:36;16.42;;;2.60;;
24799;SDS011;12897;50.812;4.430;2022-09-01T11:59:56;9.45;;;2.35;;
24799;SDS011;12897;50.812;4.430;2022-09-01T12:02:27;9.23;;;2.42;;
24799;SDS011;12897;50.812;4.430;2022-09-01T12:04:58;6.47;;;2.12;;
24799;SDS011;12897;50.812;4.430;2022-09-01T12:07:38;8.20;;;2.05;;
24799;SDS011;12897;50.812;4.430;2022-09-01T12:10:14;17.35;;;2.33;;
24799;SDS011;12897;50.812;4.430;2022-09-01T12:12:46;6.42;;;2.08;;
24799;SDS011;12897;50.812;4.430;2022-09-01T12:15:21;7.10;;;2.00;;
24799;SDS011;12897;50.812;4.430;2022-09-01T12:17:52;13.40;;;2.67;;
24799;SDS011;12897;50.812;4.430;2022-09-01T12:20:24;7.20;;;2.47;;
24799;SDS011;12897;50.812;4.430;2022-09-01T12:22:59;6.60;;;2.40;;
24799;SDS011;12897;50.812;4.430;2022-09-01T12:25:37;3.55;;;2.17;;
24799;SDS011;12897;50.812;4.430;2022-09-01T12:28:07;3.02;;;2.00;;
24799;SDS011;12897;50.812;4.430;2022-09-01T12:30:36;19.62;;;2.98;;
24799;SDS011;12897;50.812;4.430;2022-09-01T12:33:06;3.62;;;2.10;;
24799;SDS011;12897;50.812;4.430;2022-09-01T12:35:39;8.13;;;2.27;;
24799;SDS011;12897;50.812;4.430;2022-09-01T12:40:54;11.20;;;2.85;;
24799;SDS011;12897;50.812;4.430;2022-09-01T12:43:31;7.62;;;2.45;;
24799;SDS011;12897;50.812;4.430;2022-09-01T12:45:59;5.72;;;1.90;;
24799;SDS011;12897;50.812;4.430;2022-09-01T12:48:32;4.97;;;2.20;;
24799;SDS011;12897;50.812;4.430;2022-09-01T12:51:06;9.00;;;2.40;;
24799;SDS011;12897;50.812;4.430;2022-09-01T12:53:36;6.30;;;2.60;;
24799;SDS011;12897;50.812;4.430;2022-09-01T12:59:09;4.08;;;2.00;;
24799;SDS011;12897;50.812;4.430;2022-09-01T13:01:40;4.42;;;2.25;;
24799;SDS011;12897;50.812;4.430;2022-09-01T13:04:23;6.83;;;2.60;;
24799;SDS011;12897;50.812;4.430;2022-09-01T13:06:53;6.28;;;2.52;;
24799;SDS011;12897;50.812;4.430;2022-09-01T13:09:24;7.12;;;1.90;;
24799;SDS011;12897;50.812;4.430;2022-09-01T13:11:52;2.95;;;2.35;;
24799;SDS011;12897;50.812;4.430;2022-09-01T13:14:21;5.53;;;2.15;;
24799;SDS011;12897;50.812;4.430;2022-09-01T13:16:50;8.85;;;2.22;;
24799;SDS011;12897;50.812;4.430;2022-09-01T13:19:18;5.28;;;1.95;;
24799;SDS011;12897;50.812;4.430;2022-09-01T13:21:45;5.28;;;1.87;;
24799;SDS011;12897;50.812;4.430;2022-09-01T13:24:14;4.50;;;2.30;;
24799;SDS011;12897;50.812;4.430;2022-09-01T13:26:43;8.33;;;2.53;;
24799;SDS011;12897;50.812;4.430;2022-09-01T13:29:13;4.10;;;1.98;;
24799;SDS011;12897;50.812;4.430;2022-09-01T13:31:46;4.92;;;2.35;;
24799;SDS011;12897;50.812;4.430;2022-09-01T13:34:13;8.23;;;2.40;;
24799;SDS011;12897;50.812;4.430;2022-09-01T13:36:41;7.35;;;2.22;;
24799;SDS011;12897;50.812;4.430;2022-09-01T13:39:08;6.70;;;2.20;;
24799;SDS011;12897;50.812;4.430;2022-09-01T13:41:45;4.58;;;2.20;;
24799;SDS011;12897;50.812;4.430;2022-09-01T13:44:14;3.60;;;2.20;;
24799;SDS011;12897;50.812;4.430;2022-09-01T13:46:43;6.37;;;2.40;;
24799;SDS011;12897;50.812;4.430;2022-09-01T13:49:11;169.68;;;11.05;;
24799;SDS011;12897;50.812;4.430;2022-09-01T13:51:39;268.33;;;14.80;;
24799;SDS011;12897;50.812;4.430;2022-09-01T13:54:06;18.87;;;2.80;;
24799;SDS011;12897;50.812;4.430;2022-09-01T13:56:34;3.75;;;2.20;;
24799;SDS011;12897;50.812;4.430;2022-09-01T13:59:06;5.83;;;2.27;;
24799;SDS011;12897;50.812;4.430;2022-09-01T14:01:41;6.80;;;2.33;;
24799;SDS011;12897;50.812;4.430;2022-09-01T14:04:09;4.05;;;2.05;;
24799;SDS011;12897;50.812;4.430;2022-09-01T14:06:40;6.12;;;2.20;;
24799;SDS011;12897;50.812;4.430;2022-09-01T14:09:11;5.55;;;1.87;;
24799;SDS011;12897;50.812;4.430;2022-09-01T14:11:40;6.20;;;2.27;;
24799;SDS011;12897;50.812;4.430;2022-09-01T14:14:08;5.83;;;2.25;;
24799;SDS011;12897;50.812;4.430;2022-09-01T14:16:40;6.47;;;2.40;;
24799;SDS011;12897;50.812;4.430;2022-09-01T14:19:10;2.25;;;2.00;;
24799;SDS011;12897;50.812;4.430;2022-09-01T14:21:40;16.12;;;2.50;;
24799;SDS011;12897;50.812;4.430;2022-09-01T14:24:18;4.03;;;1.92;;
24799;SDS011;12897;50.812;4.430;2022-09-01T14:26:45;4.17;;;2.02;;
24799;SDS011;12897;50.812;4.430;2022-09-01T14:29:17;4.87;;;2.58;;
24799;SDS011;12897;50.812;4.430;2022-09-01T14:31:45;4.10;;;2.05;;
24799;SDS011;12897;50.812;4.430;2022-09-01T14:34:14;8.53;;;1.80;;
24799;SDS011;12897;50.812;4.430;2022-09-01T14:39:12;4.35;;;1.70;;
24799;SDS011;12897;50.812;4.430;2022-09-01T14:41:39;2.70;;;1.90;;
24799;SDS011;12897;50.812;4.430;2022-09-01T14:44:09;10.78;;;1.90;;
24799;SDS011;12897;50.812;4.430;2022-09-01T14:46:37;8.98;;;2.00;;
24799;SDS011;12897;50.812;4.430;2022-09-01T14:49:06;12.20;;;2.10;;
24799;SDS011;12897;50.812;4.430;2022-09-01T14:51:36;4.85;;;2.20;;
24799;SDS011;12897;50.812;4.430;2022-09-01T14:54:05;7.87;;;1.90;;
24799;SDS011;12897;50.812;4.430;2022-09-01T14:56:32;6.33;;;1.98;;
24799;SDS011;12897;50.812;4.430;2022-09-01T14:59:01;4.83;;;1.75;;
24799;SDS011;12897;50.812;4.430;2022-09-01T15:01:28;6.47;;;2.10;;
24799;SDS011;12897;50.812;4.430;2022-09-01T15:03:56;6.55;;;1.70;;
24799;SDS011;12897;50.812;4.430;2022-09-01T15:06:24;3.00;;;1.60;;
24799;SDS011;12897;50.812;4.430;2022-09-01T15:08:52;9.63;;;2.00;;
24799;SDS011;12897;50.812;4.430;2022-09-01T15:11:22;9.80;;;2.45;;
24799;SDS011;12897;50.812;4.430;2022-09-01T15:13:54;9.70;;;2.20;;
24799;SDS011;12897;50.812;4.430;2022-09-01T15:18:53;10.80;;;2.15;;
24799;SDS011;12897;50.812;4.430;2022-09-01T15:21:28;5.33;;;1.87;;
24799;SDS011;12897;50.812;4.430;2022-09-01T15:23:57;10.58;;;1.92;;
24799;SDS011;12897;50.812;4.430;2022-09-01T15:26:26;16.05;;;1.80;;
24799;SDS011;12897;50.812;4.430;2022-09-01T15:28:56;5.10;;;1.90;;
24799;SDS011;12897;50.812;4.430;2022-09-01T15:31:27;5.10;;;1.82;;
24799;SDS011;12897;50.812;4.430;2022-09-01T15:33:57;6.72;;;1.90;;
24799;SDS011;12897;50.812;4.430;2022-09-01T15:36:27;4.55;;;1.90;;
24799;SDS011;12897;50.812;4.430;2022-09-01T15:38:57;7.83;;;1.60;;
24799;SDS011;12897;50.812;4.430;2022-09-01T15:41:27;3.92;;;1.82;;
24799;SDS011;12897;50.812;4.430;2022-09-01T15:43:57;3.70;;;1.47;;
24799;SDS011;12897;50.812;4.430;2022-09-01T15:46:25;9.13;;;1.80;;
24799;SDS011;12897;50.812;4.430;2022-09-01T15:48:56;8.48;;;1.87;;
24799;SDS011;12897;50.812;4.430;2022-09-01T15:51:35;8.63;;;1.85;;
24799;SDS011;12897;50.812;4.430;2022-09-01T15:54:18;4.75;;;1.80;;
24799;SDS011;12897;50.812;4.430;2022-09-01T15:56:45;11.90;;;2.67;;
24799;SDS011;12897;50.812;4.430;2022-09-01T15:59:14;7.57;;;2.23;;
24799;SDS011;12897;50.812;4.430;2022-09-01T16:01:44;8.63;;;1.57;;
24799;SDS011;12897;50.812;4.430;2022-09-01T16:04:13;5.62;;;1.50;;
24799;SDS011;12897;50.812;4.430;2022-09-01T16:06:42;3.42;;;1.80;;
24799;SDS011;12897;50.812;4.430;2022-09-01T16:09:10;3.85;;;1.62;;
24799;SDS011;12897;50.812;4.430;2022-09-01T16:11:39;3.85;;;1.87;;
24799;SDS011;12897;50.812;4.430;2022-09-01T16:14:07;4.67;;;1.67;;
24799;SDS011;12897;50.812;4.430;2022-09-01T16:27:41;3.83;;;1.70;;
24799;SDS011;12897;50.812;4.430;2022-09-01T16:30:12;7.00;;;1.57;;
24799;SDS011;12897;50.812;4.430;2022-09-01T16:32:43;6.90;;;2.22;;
24799;SDS011;12897;50.812;4.430;2022-09-01T16:35:13;1.72;;;1.52;;
24799;SDS011;12897;50.812;4.430;2022-09-01T16:37:51;8.80;;;2.02;;
24799;SDS011;12897;50.812;4.430;2022-09-01T16:40:44;8.43;;;1.60;;
24799;SDS011;12897;50.812;4.430;2022-09-01T16:43:25;3.25;;;1.60;;
24799;SDS011;12897;50.812;4.430;2022-09-01T16:51:14;3.15;;;1.67;;
24799;SDS011;12897;50.812;4.430;2022-09-01T16:56:53;4.60;;;1.87;;